Winston Salem, North Carolina
Current Conditions -  °F | °C
As of 2:54 PM on Sunday 21 Dec 2014 (Local Time) from KINT Reporting Station
Overcast Overcast  
Wind Chill: 47°   Ceiling: 2500
Heat Index: 47°   Visibility: 8mi
Dew Point: 34°   Wind: 0mph
Humidity: 61%   Direction: NA
Pressure: 30.22"   Gusts: NA
Location:  36.1112°N, 80.1999°W
Report Text: KINT 211954Z 00000KT 8SM OVC025 08/01 A3022 RMK AO2 SLP237 T00830011
Loading
Personal Weather Stations






























Interactive Weather Map New forecast layout! Learn more

10-Day Weather Forecast

Advertisements
Track Severe Weather on mobile